Aeroporto :
LOGIN :

Iscrizione | Disclaimer

   EN    FR    IT 

 










Sommario :    VFR   VFR Marginale   IFR   IFR Intensivo   IFR Molto Intensivo
Visibilità : 
Base nubi : 
>= 8 km
>= 3000ft
5 / 8 km
1000 / 3000 ft
1500m / 5 km
500 / 1000 ft
800 / 1500m
200 / 500 ft
< 800m
< 200 ft
Simboli :   Temporali  Nebbia  Neve Forte  Precipitazioni Forti  Vento > 20 kt
SIGMETs :   Varie  Temporali  Ghiacco  Turbolenza  Onda orograficha  Ceneri Vulcaniche







- Altitudine del aeroporto : 266 ft
- Codice IATA : NCL
- Carte del aeroporto


EGNT - Newcastle

ULTIMO METAR :
  • 230920Z 11010KT CAVOK 12/08 Q1002

METARs OBSOLETI :
  • 230850Z 11009KT CAVOK 11/08 Q1002
  • 230820Z 11007KT 070V150 CAVOK 10/08 Q1002
  • 230750Z 10008KT CAVOK 10/09 Q1002
  • 230720Z 09004KT 080V140 CAVOK 09/09 Q1002
  • 230650Z VRB01KT CAVOK 09/09 Q1003

TAF AMD TAF EGNT
Valido dal 23 a 06 ore il 24 a 06 ore UTC


230600Z 2306/2406 04008KT 7000 NSC
BECMG 2307/2310 10010KT CAVOK
BECMG 2314/2317 BKN015
TEMPO 2316/2406 BKN010
ATIS : +44 191 214 3400
Nessun NOTAM noto per questo aeroporto.



MetMap, La meteo Aeronautica in un colpo d'occhio ! - Copyright ORBIFLY Dicembre 2007 - Disclaimer

ORBIFLY MET'MAP TEAM :

Programmazione e sviluppo : Alexandra Zaïnal
Concezione e sviluppo : Baudouin d'Aumeries
Co-Programmazione e sviluppo : Marc-Olivier Méhu
Supporto tecnico e logistico : Manuel Goepfert
Aiuto per la traduzione : Arnaldo La Scala

Contatto : metmap@orbifly.com




FONTI E CREDITI :

   NOAA